Van Buren, Mississippi
Current Conditions -  °F | °C
As of 1:53 AM on Monday 26 Jan 2015 (Local Time) from KTUP Reporting Station
Overcast Overcast  
Wind Chill: 38°   Ceiling: 1700
Heat Index: 43°   Visibility: 10mi
Dew Point: 36°   Wind: 9mph
Humidity: 76%   Direction: 340°NNW
Pressure: 29.93"   Gusts: 21mph
Location:  34.0719°N, 88.6162°W
Report Text: KTUP 260753Z AUTO 34008G18KT 300V010 10SM OVC017 06/02 A2993 RMK AO2 SLP133 T00610022
Loading
Personal Weather Stations






























Interactive Weather Map New forecast layout! Learn more

10-Day Weather Forecast

Advertisements
Track Severe Weather on mobile